createdAt,value
2019-02-25T00:00:49.141Z,6.97
2019-02-25T00:03:17.482Z,6.30
2019-02-25T00:05:45.456Z,7.00
2019-02-25T00:08:13.520Z,7.40
2019-02-25T00:10:41.602Z,6.70
2019-02-25T00:13:09.567Z,6.60
2019-02-25T00:15:37.755Z,6.50
2019-02-25T00:18:05.638Z,6.77
2019-02-25T00:20:33.716Z,6.57
2019-02-25T00:23:01.892Z,5.83
2019-02-25T00:25:29.983Z,7.50
2019-02-25T00:27:57.993Z,6.43
2019-02-25T00:30:26.182Z,6.87
2019-02-25T00:32:54.157Z,5.90
2019-02-25T00:35:22.009Z,7.47
2019-02-25T00:37:49.904Z,7.00
2019-02-25T00:40:17.870Z,6.53
2019-02-25T00:42:45.912Z,7.60
2019-02-25T00:45:13.968Z,6.73
2019-02-25T00:47:41.973Z,7.10
2019-02-25T00:50:10.988Z,6.60
2019-02-25T00:52:38.990Z,7.50
2019-02-25T00:55:07.043Z,6.90
2019-02-25T00:57:35.021Z,6.87
2019-02-25T01:00:03.177Z,7.60
2019-02-25T01:02:31.559Z,6.50
2019-02-25T01:04:59.509Z,7.03
2019-02-25T01:07:27.375Z,6.30
2019-02-25T01:09:55.252Z,6.27
2019-02-25T01:12:23.329Z,5.80
2019-02-25T01:14:51.300Z,6.90
2019-02-25T01:17:19.275Z,6.97
2019-02-25T01:19:47.414Z,6.80
2019-02-25T01:22:15.385Z,6.70
2019-02-25T01:24:43.248Z,6.53
2019-02-25T01:27:11.218Z,6.73
2019-02-25T01:29:39.133Z,6.40
2019-02-25T01:32:07.459Z,6.83
2019-02-25T01:34:35.321Z,6.60
2019-02-25T01:37:03.324Z,6.83
2019-02-25T01:39:31.695Z,6.20
2019-02-25T01:41:59.721Z,6.47
2019-02-25T01:44:27.784Z,6.40
2019-02-25T01:46:55.819Z,6.50
2019-02-25T01:49:23.783Z,6.50
2019-02-25T01:51:51.982Z,6.63
2019-02-25T01:54:19.857Z,6.50
2019-02-25T01:56:47.779Z,6.30
2019-02-25T01:59:15.667Z,6.50
2019-02-25T02:01:43.576Z,6.40
2019-02-25T02:04:11.478Z,7.33
2019-02-25T02:06:39.634Z,7.10
2019-02-25T02:09:09.454Z,6.63
2019-02-25T02:11:37.409Z,6.80
2019-02-25T02:14:05.697Z,6.90
2019-02-25T02:16:33.800Z,6.07
2019-02-25T02:19:01.651Z,6.80
2019-02-25T02:21:29.532Z,6.37
2019-02-25T02:23:57.486Z,5.70
2019-02-25T02:26:25.571Z,6.47
2019-02-25T02:28:53.626Z,6.60
2019-02-25T02:31:21.653Z,7.10
2019-02-25T02:33:49.561Z,6.07
2019-02-25T02:36:17.461Z,7.37
2019-02-25T02:38:45.911Z,7.00
2019-02-25T02:41:13.916Z,6.90
2019-02-25T02:43:41.892Z,6.70
2019-02-25T02:46:17.210Z,7.10
2019-02-25T02:48:47.238Z,6.97
2019-02-25T02:51:15.115Z,6.90
2019-02-25T02:53:43.102Z,6.10
2019-02-25T02:56:11.183Z,6.20
2019-02-25T02:58:39.116Z,6.40
2019-02-25T03:01:07.138Z,6.40
2019-02-25T03:03:35.040Z,6.40
2019-02-25T03:06:03.044Z,7.80
2019-02-25T03:08:31.055Z,6.70
2019-02-25T03:10:59.039Z,6.10
2019-02-25T03:13:27.189Z,6.00
2019-02-25T03:15:55.232Z,6.50
2019-02-25T03:18:23.248Z,6.10
2019-02-25T03:20:51.215Z,6.90
2019-02-25T03:23:19.127Z,6.33
2019-02-25T03:25:47.037Z,5.93
2019-02-25T03:28:15.123Z,6.03
2019-02-25T03:30:43.078Z,5.93
2019-02-25T03:33:11.083Z,6.57
2019-02-25T03:35:38.964Z,6.67
2019-02-25T03:38:07.266Z,6.73
2019-02-25T03:40:35.412Z,5.70
2019-02-25T03:43:03.503Z,6.20
2019-02-25T03:45:31.464Z,6.07
2019-02-25T03:47:59.451Z,6.37
2019-02-25T03:50:27.401Z,6.23
2019-02-25T03:52:55.734Z,6.03
2019-02-25T03:55:23.654Z,5.77
2019-02-25T03:57:51.607Z,6.17
2019-02-25T04:00:20.698Z,5.30
2019-02-25T04:02:48.870Z,5.73
2019-02-25T04:05:16.875Z,6.17
2019-02-25T04:07:44.903Z,5.73
2019-02-25T04:10:13.056Z,5.77
2019-02-25T04:12:41.045Z,5.80
2019-02-25T04:15:11.242Z,6.57
2019-02-25T04:17:39.269Z,6.50
2019-02-25T04:20:08.665Z,5.43
2019-02-25T04:22:36.602Z,5.33
2019-02-25T04:25:04.826Z,5.73
2019-02-25T04:27:32.802Z,5.40
2019-02-25T04:30:00.848Z,6.23
2019-02-25T04:32:29.091Z,5.20
2019-02-25T04:34:57.047Z,5.67
2019-02-25T04:37:25.109Z,5.50
2019-02-25T04:39:53.147Z,6.03
2019-02-25T04:42:21.487Z,5.87
2019-02-25T04:44:51.281Z,5.50
2019-02-25T04:47:19.461Z,5.57
2019-02-25T04:49:47.573Z,4.90
2019-02-25T04:52:15.437Z,5.40
2019-02-25T04:54:43.363Z,5.50
2019-02-25T04:57:11.240Z,5.80
2019-02-25T04:59:39.132Z,5.33
2019-02-25T05:02:07.608Z,5.50
2019-02-25T05:04:35.779Z,5.43
2019-02-25T05:07:04.059Z,5.70
2019-02-25T05:09:32.064Z,5.37
2019-02-25T05:12:00.537Z,5.17
2019-02-25T05:14:28.653Z,6.07
2019-02-25T05:16:56.954Z,6.47
2019-02-25T05:19:25.875Z,6.30
2019-02-25T05:21:54.105Z,6.43
2019-02-25T05:24:22.374Z,5.23
2019-02-25T05:26:50.528Z,5.63
2019-02-25T05:29:18.646Z,5.50
2019-02-25T05:31:47.007Z,5.30
2019-02-25T05:34:14.981Z,5.93
2019-02-25T05:36:43.458Z,5.30
2019-02-25T05:39:11.745Z,5.80
2019-02-25T05:41:39.738Z,5.07
2019-02-25T05:44:08.543Z,5.63
2019-02-25T05:46:36.578Z,5.03
2019-02-25T05:49:04.522Z,5.53
2019-02-25T05:51:32.595Z,5.80
2019-02-25T05:54:00.569Z,5.20
2019-02-25T05:56:28.555Z,5.30
2019-02-25T05:58:56.538Z,5.80
2019-02-25T06:01:24.553Z,4.30
2019-02-25T06:03:52.461Z,4.97
2019-02-25T06:06:20.633Z,4.60
2019-02-25T06:08:48.781Z,5.00
2019-02-25T06:11:16.959Z,4.73
2019-02-25T06:13:45.064Z,5.00
2019-02-25T06:16:13.148Z,5.00
2019-02-25T06:18:41.174Z,5.20
2019-02-25T06:21:09.510Z,4.60
2019-02-25T06:23:37.622Z,4.77
2019-02-25T06:26:05.900Z,5.10
2019-02-25T06:28:34.353Z,5.30
2019-02-25T06:31:02.517Z,5.50
2019-02-25T06:33:30.814Z,5.60
2019-02-25T06:35:59.141Z,6.20
2019-02-25T06:38:27.133Z,5.13
2019-02-25T06:40:55.131Z,5.40
2019-02-25T06:43:23.124Z,5.30
2019-02-25T06:45:51.014Z,4.93
2019-02-25T06:48:19.076Z,5.57
2019-02-25T06:50:47.240Z,5.10
2019-02-25T06:53:15.356Z,4.90
2019-02-25T06:55:43.354Z,5.40
2019-02-25T06:58:11.696Z,5.47
2019-02-25T07:00:39.780Z,6.17
2019-02-25T07:03:29.224Z,5.67
2019-02-25T07:06:19.356Z,5.47
2019-02-25T07:09:04.802Z,5.50
2019-02-25T07:11:42.099Z,5.20
2019-02-25T07:14:34.564Z,5.40
2019-02-25T07:17:10.025Z,5.70
2019-02-25T07:19:45.633Z,5.70
2019-02-25T07:22:20.996Z,5.57
2019-02-25T07:25:16.721Z,6.07
2019-02-25T07:28:02.507Z,5.20
2019-02-25T07:30:48.260Z,5.90
2019-02-25T07:33:32.573Z,5.23
2019-02-25T07:36:21.586Z,5.40
2019-02-25T07:39:17.734Z,5.67
2019-02-25T07:42:04.931Z,6.10
2019-02-25T07:44:47.839Z,5.27
2019-02-25T07:47:37.628Z,5.53
2019-02-25T07:50:27.411Z,5.70
2019-02-25T07:53:12.796Z,5.80
2019-02-25T07:56:05.732Z,5.40
2019-02-25T07:58:52.676Z,5.33
2019-02-25T08:01:39.667Z,5.50
2019-02-25T08:04:23.216Z,5.60
2019-02-25T08:07:07.179Z,5.70
2019-02-25T08:09:51.402Z,5.70
2019-02-25T08:12:41.086Z,5.70
2019-02-25T08:15:31.138Z,6.57
2019-02-25T08:18:18.380Z,5.73
2019-02-25T08:20:59.686Z,5.70
2019-02-25T08:23:38.115Z,5.23
2019-02-25T08:26:26.932Z,5.50
2019-02-25T08:29:11.827Z,5.80
2019-02-25T08:32:01.213Z,5.20
2019-02-25T08:34:51.382Z,6.00
2019-02-25T08:37:46.182Z,5.47
2019-02-25T08:40:51.816Z,5.20
2019-02-25T08:43:30.982Z,4.63
2019-02-25T08:46:24.934Z,4.87
2019-02-25T08:49:18.093Z,5.53
2019-02-25T08:51:46.926Z,5.57
2019-02-25T08:54:14.916Z,5.30
2019-02-25T08:56:42.943Z,5.30
2019-02-25T08:59:11.136Z,5.60
2019-02-25T09:01:39.168Z,5.20
2019-02-25T09:04:07.240Z,5.10
2019-02-25T09:06:35.555Z,5.57
2019-02-25T09:09:04.370Z,5.50
2019-02-25T09:11:32.442Z,5.43
2019-02-25T09:14:00.330Z,4.60
2019-02-25T09:16:28.658Z,5.20
2019-02-25T09:18:57.968Z,4.83
2019-02-25T09:21:31.832Z,5.37
2019-02-25T09:23:56.706Z,4.70
2019-02-25T09:26:25.124Z,4.93
2019-02-25T09:28:53.161Z,5.20
2019-02-25T09:31:21.271Z,5.13
2019-02-25T09:33:49.702Z,4.60
2019-02-25T09:36:18.049Z,5.03
2019-02-25T09:38:46.316Z,4.87
2019-02-25T09:41:14.279Z,5.53
2019-02-25T09:43:43.016Z,5.30
2019-02-25T09:46:11.568Z,5.60
2019-02-25T09:48:39.775Z,5.20
2019-02-25T09:51:08.124Z,4.87
2019-02-25T09:53:36.366Z,5.23
2019-02-25T09:56:04.673Z,5.10
2019-02-25T09:58:33.300Z,5.40
2019-02-25T10:01:01.754Z,4.70
2019-02-25T10:03:30.005Z,4.30
2019-02-25T10:05:57.868Z,4.70
2019-02-25T10:08:25.974Z,5.10
2019-02-25T10:10:53.928Z,5.10
2019-02-25T10:13:21.909Z,5.30
2019-02-25T10:15:49.926Z,4.23
2019-02-25T10:18:18.462Z,4.83
2019-02-25T10:20:46.508Z,4.57
2019-02-25T10:23:14.535Z,5.00
2019-02-25T10:25:42.487Z,4.80
2019-02-25T10:28:10.668Z,4.90
2019-02-25T10:30:38.799Z,4.87
2019-02-25T10:33:07.313Z,4.57
2019-02-25T10:35:35.330Z,5.00
2019-02-25T10:38:04.018Z,4.50
2019-02-25T10:40:32.800Z,4.10
2019-02-25T10:43:00.884Z,4.40
2019-02-25T10:45:28.792Z,4.53
2019-02-25T10:47:58.748Z,4.73
2019-02-25T10:50:26.402Z,4.20
2019-02-25T10:53:03.194Z,4.20
2019-02-25T10:55:27.307Z,4.03
2019-02-25T10:57:57.118Z,4.97
2019-02-25T11:00:25.779Z,4.30
2019-02-25T11:02:55.874Z,4.77
2019-02-25T11:05:25.452Z,4.40
2019-02-25T11:07:53.342Z,4.37
2019-02-25T11:10:35.792Z,4.07
2019-02-25T11:13:04.323Z,4.33
2019-02-25T11:15:33.632Z,3.87
2019-02-25T11:18:01.556Z,4.10
2019-02-25T11:20:31.315Z,4.10
2019-02-25T11:22:59.271Z,4.57
2019-02-25T11:25:28.494Z,4.63
2019-02-25T11:27:57.865Z,4.50
2019-02-25T11:30:26.121Z,4.70
2019-02-25T11:32:57.432Z,4.20
2019-02-25T11:35:25.357Z,5.23
2019-02-25T11:37:54.709Z,4.33
2019-02-25T11:40:23.280Z,4.70
2019-02-25T11:42:52.061Z,4.47
2019-02-25T11:45:20.356Z,4.20
2019-02-25T11:47:48.519Z,4.67
2019-02-25T11:50:16.797Z,3.93
2019-02-25T11:52:45.431Z,3.90
2019-02-25T11:55:13.637Z,4.13
2019-02-25T11:57:42.180Z,4.30
2019-02-25T12:00:20.279Z,3.60
2019-02-25T12:02:48.143Z,4.60
2019-02-25T12:05:16.628Z,4.07
2019-02-25T12:07:44.904Z,4.23
2019-02-25T12:10:12.753Z,3.97
2019-02-25T12:12:40.673Z,4.37
2019-02-25T12:15:09.983Z,3.87
2019-02-25T12:17:37.861Z,4.00
2019-02-25T12:20:05.932Z,3.73
2019-02-25T12:22:34.023Z,4.27
2019-02-25T12:25:02.101Z,4.10
2019-02-25T12:27:30.010Z,3.90
2019-02-25T12:29:58.032Z,4.33
2019-02-25T12:32:25.936Z,3.40
2019-02-25T12:34:53.852Z,3.77
2019-02-25T12:37:22.147Z,3.33
2019-02-25T12:39:50.191Z,3.60
2019-02-25T12:42:18.167Z,3.00
2019-02-25T12:44:46.286Z,3.70
2019-02-25T12:47:14.299Z,3.60
2019-02-25T12:49:42.572Z,3.20
2019-02-25T12:52:10.870Z,3.87
2019-02-25T12:54:38.867Z,3.90
2019-02-25T12:57:06.977Z,3.43
2019-02-25T12:59:34.985Z,3.90
2019-02-25T13:02:02.947Z,3.50
2019-02-25T13:04:31.048Z,3.50
2019-02-25T13:06:59.147Z,3.57
2019-02-25T13:09:27.091Z,3.70
2019-02-25T13:11:55.144Z,4.30
2019-02-25T13:14:23.141Z,4.37
2019-02-25T13:16:51.247Z,3.67
2019-02-25T13:19:19.400Z,4.60
2019-02-25T13:21:47.340Z,3.90
2019-02-25T13:24:15.213Z,3.47
2019-02-25T13:26:43.266Z,4.07
2019-02-25T13:29:11.387Z,3.60
2019-02-25T13:31:39.321Z,3.60
2019-02-25T13:34:07.325Z,3.80
2019-02-25T13:36:35.554Z,3.70
2019-02-25T13:39:04.878Z,4.10
2019-02-25T13:41:32.797Z,3.90
2019-02-25T13:44:01.136Z,3.50
2019-02-25T13:46:29.175Z,3.50
2019-02-25T13:48:57.564Z,3.70
2019-02-25T13:51:25.958Z,3.77
2019-02-25T13:53:53.892Z,4.00
2019-02-25T13:56:21.849Z,3.87
2019-02-25T13:58:49.852Z,3.37
2019-02-25T14:01:18.155Z,4.50
2019-02-25T14:03:46.486Z,3.43
2019-02-25T14:06:14.532Z,4.17
2019-02-25T14:08:42.591Z,4.97
2019-02-25T14:11:10.856Z,4.10
2019-02-25T14:13:38.837Z,4.13
2019-02-25T14:16:06.816Z,3.73
2019-02-25T14:18:34.767Z,4.00
2019-02-25T14:21:03.104Z,3.90
2019-02-25T14:23:31.132Z,3.90
2019-02-25T14:25:59.262Z,5.10
2019-02-25T14:28:30.051Z,4.10
2019-02-25T14:30:57.046Z,3.70
2019-02-25T14:33:25.061Z,4.93
2019-02-25T14:35:53.248Z,4.40
2019-02-25T14:38:23.267Z,3.90
2019-02-25T14:40:51.930Z,4.13
2019-02-25T14:43:22.681Z,3.70
2019-02-25T14:45:53.799Z,4.60
2019-02-25T14:48:22.774Z,4.03
2019-02-25T14:50:50.311Z,4.10
2019-02-25T14:53:18.282Z,4.00
2019-02-25T14:55:47.765Z,4.80
2019-02-25T14:58:17.567Z,4.23
2019-02-25T15:00:45.844Z,4.47
2019-02-25T15:03:18.093Z,3.97
2019-02-25T15:05:46.388Z,4.20
2019-02-25T15:08:16.359Z,3.40
2019-02-25T15:10:44.422Z,3.80
2019-02-25T15:13:12.542Z,3.93
2019-02-25T15:15:41.707Z,3.73
2019-02-25T15:18:10.224Z,4.03
2019-02-25T15:20:38.339Z,3.53
2019-02-25T15:23:07.494Z,3.67
2019-02-25T15:25:37.273Z,3.80
2019-02-25T15:28:07.373Z,3.87
2019-02-25T15:30:35.447Z,3.53
2019-02-25T15:33:03.467Z,3.90
2019-02-25T15:35:34.454Z,4.17
2019-02-25T15:38:01.469Z,3.73
2019-02-25T15:40:29.661Z,3.30
2019-02-25T15:43:01.812Z,3.20
2019-02-25T15:45:31.073Z,3.43
2019-02-25T15:48:00.620Z,3.33
2019-02-25T15:50:28.612Z,3.70
2019-02-25T15:52:58.619Z,2.93
2019-02-25T15:55:27.698Z,3.67
2019-02-25T15:57:56.779Z,3.70
2019-02-25T16:00:25.908Z,3.80
2019-02-25T16:02:56.936Z,4.00
2019-02-25T16:05:27.387Z,3.80
2019-02-25T16:07:59.670Z,3.40
2019-02-25T16:10:27.316Z,3.23
2019-02-25T16:12:57.661Z,3.60
2019-02-25T16:15:25.815Z,3.50
2019-02-25T16:17:53.811Z,3.50
2019-02-25T16:20:21.947Z,3.60
2019-02-25T16:22:50.095Z,3.60
2019-02-25T16:25:18.025Z,3.67
2019-02-25T16:27:49.748Z,3.53
2019-02-25T16:30:17.063Z,2.83
2019-02-25T16:32:46.359Z,3.27
2019-02-25T16:35:15.404Z,3.10
2019-02-25T16:37:43.464Z,3.50
2019-02-25T16:40:11.776Z,3.07
2019-02-25T16:42:41.391Z,4.47
2019-02-25T16:45:11.815Z,3.83
2019-02-25T16:47:40.469Z,3.13
2019-02-25T16:50:08.575Z,3.10
2019-02-25T16:52:40.497Z,3.20
2019-02-25T16:55:06.786Z,3.40
2019-02-25T16:57:36.965Z,3.07
2019-02-25T17:00:07.780Z,3.20
2019-02-25T17:02:36.695Z,2.60
2019-02-25T17:05:05.700Z,3.33
2019-02-25T17:07:33.765Z,2.73
2019-02-25T17:10:03.228Z,3.10
2019-02-25T17:12:31.679Z,3.53
2019-02-25T17:14:59.953Z,2.97
2019-02-25T17:17:28.105Z,3.20
2019-02-25T17:19:56.391Z,3.30
2019-02-25T17:22:24.637Z,3.57
2019-02-25T17:24:54.364Z,3.47
2019-02-25T17:27:22.423Z,3.83
2019-02-25T17:29:51.258Z,4.03
2019-02-25T17:32:21.217Z,4.13
2019-02-25T17:34:49.679Z,4.67
2019-02-25T17:37:17.654Z,5.83
2019-02-25T17:39:45.655Z,5.23
2019-02-25T17:42:13.721Z,4.90
2019-02-25T17:44:42.016Z,5.50
2019-02-25T17:47:11.101Z,6.03
2019-02-25T17:49:40.594Z,6.00
2019-02-25T17:52:09.415Z,5.70
2019-02-25T17:54:38.145Z,6.10
2019-02-25T17:57:07.600Z,6.27
2019-02-25T17:59:36.597Z,6.17
2019-02-25T18:02:06.157Z,6.40
2019-02-25T18:04:34.707Z,6.43
2019-02-25T18:07:02.759Z,7.23
2019-02-25T18:09:30.881Z,6.57
2019-02-25T18:12:00.040Z,7.60
2019-02-25T18:14:28.328Z,7.00
2019-02-25T18:16:56.358Z,8.10
2019-02-25T18:19:25.450Z,7.63
2019-02-25T18:21:58.124Z,7.20
2019-02-25T18:24:26.991Z,7.30
2019-02-25T18:26:55.502Z,7.50
2019-02-25T18:29:24.793Z,7.80
2019-02-25T18:31:54.444Z,8.13
2019-02-25T18:34:22.505Z,8.03
2019-02-25T18:36:51.614Z,7.73
2019-02-25T18:39:20.955Z,7.40
2019-02-25T18:41:50.510Z,8.00
2019-02-25T18:44:19.248Z,7.77
2019-02-25T18:46:48.218Z,8.23
2019-02-25T18:49:16.851Z,7.73
2019-02-25T18:51:50.030Z,7.80
2019-02-25T18:54:19.056Z,8.60
2019-02-25T18:56:47.074Z,8.00
2019-02-25T18:59:17.417Z,7.97
2019-02-25T19:01:45.395Z,7.50
2019-02-25T19:04:15.397Z,8.17
2019-02-25T19:06:45.739Z,8.50
2019-02-25T19:09:18.247Z,7.97
2019-02-25T19:11:49.035Z,8.60
2019-02-25T19:14:17.857Z,8.33
2019-02-25T19:16:46.789Z,9.80
2019-02-25T19:19:16.923Z,8.00
2019-02-25T19:21:45.662Z,8.50
2019-02-25T19:24:14.739Z,8.20
2019-02-25T19:26:45.152Z,8.67
2019-02-25T19:29:15.212Z,8.23
2019-02-25T19:31:43.160Z,8.50
2019-02-25T19:34:11.298Z,7.47
2019-02-25T19:36:41.125Z,8.83
2019-02-25T19:39:11.947Z,7.30
2019-02-25T19:41:45.029Z,8.03
2019-02-25T19:44:12.651Z,8.00
2019-02-25T19:46:40.333Z,9.10
2019-02-25T19:49:09.263Z,10.00
2019-02-25T19:51:38.018Z,8.60
2019-02-25T19:54:07.063Z,7.90
2019-02-25T19:56:35.863Z,8.00
2019-02-25T19:59:05.561Z,7.37
2019-02-25T20:01:33.417Z,8.27
2019-02-25T20:04:04.381Z,8.43
2019-02-25T20:06:30.982Z,7.53
2019-02-25T20:09:00.429Z,8.00
2019-02-25T20:11:28.716Z,8.23
2019-02-25T20:14:00.923Z,8.00
2019-02-25T20:16:29.752Z,8.90
2019-02-25T20:18:58.598Z,9.00
2019-02-25T20:21:28.668Z,9.03
2019-02-25T20:23:56.591Z,7.90
2019-02-25T20:26:26.726Z,8.47
2019-02-25T20:28:54.738Z,8.50
2019-02-25T20:31:22.884Z,8.57
2019-02-25T20:33:52.916Z,8.43
2019-02-25T20:36:22.079Z,9.30
2019-02-25T20:38:51.223Z,9.23
2019-02-25T20:41:20.499Z,9.80
2019-02-25T20:43:53.237Z,9.77
2019-02-25T20:46:21.955Z,9.60
2019-02-25T20:48:48.606Z,8.90
2019-02-25T20:51:18.131Z,9.30
2019-02-25T20:53:48.341Z,9.20
2019-02-25T20:56:15.935Z,8.73
2019-02-25T20:58:44.765Z,9.97
2019-02-25T21:01:13.731Z,9.20
2019-02-25T21:03:45.843Z,8.73
2019-02-25T21:06:14.418Z,9.30
2019-02-25T21:08:42.761Z,9.10
2019-02-25T21:11:13.377Z,10.70
2019-02-25T21:13:41.609Z,9.30
2019-02-25T21:16:10.530Z,8.87
2019-02-25T21:18:38.574Z,10.23
2019-02-25T21:21:07.716Z,9.43
2019-02-25T21:23:36.231Z,10.10
2019-02-25T21:26:06.382Z,10.47
2019-02-25T21:28:35.950Z,9.90
2019-02-25T21:31:07.194Z,8.83
2019-02-25T21:33:34.264Z,9.60
2019-02-25T21:36:02.473Z,10.57
2019-02-25T21:38:30.436Z,10.70
2019-02-25T21:40:58.371Z,10.73
2019-02-25T21:43:28.938Z,8.93
2019-02-25T21:45:56.683Z,9.63
2019-02-25T21:48:27.533Z,9.87
2019-02-25T21:50:58.055Z,10.10
2019-02-25T21:53:24.966Z,10.40
2019-02-25T21:55:55.305Z,9.20
2019-02-25T21:58:23.606Z,9.40
2019-02-25T22:00:52.270Z,10.17
2019-02-25T22:03:21.770Z,10.00
2019-02-25T22:05:53.264Z,10.90
2019-02-25T22:08:22.145Z,9.77
2019-02-25T22:10:49.544Z,9.70
2019-02-25T22:13:18.337Z,10.03
2019-02-25T22:15:47.072Z,9.67
2019-02-25T22:18:14.965Z,10.57
2019-02-25T22:20:45.262Z,10.00
2019-02-25T22:23:12.691Z,10.00
2019-02-25T22:25:40.864Z,10.40
2019-02-25T22:28:09.961Z,10.07
2019-02-25T22:30:38.202Z,10.10
2019-02-25T22:33:19.485Z,10.57
2019-02-25T22:35:38.093Z,10.97
2019-02-25T22:38:06.586Z,10.37
2019-02-25T22:40:36.625Z,10.20
2019-02-25T22:43:04.261Z,11.07
2019-02-25T22:45:33.091Z,10.50
2019-02-25T22:48:01.926Z,10.90
2019-02-25T22:50:31.134Z,11.13
2019-02-25T22:53:01.600Z,11.10
2019-02-25T22:55:29.129Z,10.93
2019-02-25T22:57:57.015Z,10.60
2019-02-25T23:00:27.809Z,12.00
2019-02-25T23:02:56.787Z,11.10
2019-02-25T23:05:25.556Z,11.20
2019-02-25T23:07:54.718Z,10.70
2019-02-25T23:10:24.150Z,11.27
2019-02-25T23:12:52.308Z,11.33
2019-02-25T23:15:20.991Z,10.73
2019-02-25T23:17:49.794Z,11.17
2019-02-25T23:20:17.703Z,10.83
2019-02-25T23:22:45.659Z,12.20
2019-02-25T23:25:13.564Z,10.50
2019-02-25T23:27:41.511Z,10.40
2019-02-25T23:30:09.409Z,9.80
2019-02-25T23:32:39.354Z,11.10
2019-02-25T23:35:09.446Z,11.03
2019-02-25T23:37:36.747Z,10.03
2019-02-25T23:40:07.323Z,10.90
2019-02-25T23:42:37.125Z,10.63
2019-02-25T23:45:04.720Z,10.77
2019-02-25T23:47:34.036Z,11.23
2019-02-25T23:50:04.158Z,11.60
2019-02-25T23:52:33.655Z,11.97
2019-02-25T23:55:02.569Z,11.50
2019-02-25T23:57:32.601Z,12.03
